createdAt,value
2022-11-25T00:02:27.640Z,25.50
2022-11-25T00:04:59.051Z,29.20
2022-11-25T00:07:30.379Z,29.87
2022-11-25T00:10:02.364Z,35.27
2022-11-25T00:12:33.800Z,34.57
2022-11-25T00:15:05.503Z,30.70
2022-11-25T00:17:36.768Z,27.30
2022-11-25T00:20:08.415Z,25.57
2022-11-25T00:22:39.723Z,27.60
2022-11-25T00:25:10.995Z,31.23
2022-11-25T00:27:42.252Z,40.27
2022-11-25T00:30:13.903Z,28.93
2022-11-25T00:32:45.156Z,29.10
2022-11-25T00:35:16.422Z,34.87
2022-11-25T00:37:48.881Z,31.53
2022-11-25T00:40:21.809Z,35.87
2022-11-25T00:43:14.222Z,24.73
2022-11-25T00:45:46.679Z,27.97
2022-11-25T00:48:40.955Z,26.13
2022-11-25T00:51:22.762Z,34.00
2022-11-25T00:53:58.914Z,26.67
2022-11-25T00:56:34.808Z,26.77
2022-11-25T00:59:07.386Z,24.05
2022-11-25T01:01:43.569Z,32.50
2022-11-25T01:04:17.068Z,26.98
2022-11-25T01:06:48.387Z,28.67
2022-11-25T01:09:20.035Z,33.03
2022-11-25T01:11:52.141Z,27.00
2022-11-25T01:14:24.166Z,22.30
2022-11-25T01:16:55.474Z,24.80
2022-11-25T01:19:26.984Z,26.00
2022-11-25T01:21:58.275Z,23.73
2022-11-25T01:24:29.526Z,17.47
2022-11-25T01:27:00.788Z,29.20
2022-11-25T01:29:32.050Z,20.97
2022-11-25T01:32:03.402Z,28.90
2022-11-25T01:34:35.021Z,16.33
2022-11-25T01:37:06.505Z,30.43
2022-11-25T01:39:39.657Z,23.83
2022-11-25T01:42:10.941Z,29.93
2022-11-25T01:44:43.149Z,18.90
2022-11-25T01:47:24.343Z,17.47
2022-11-25T01:50:03.748Z,25.93
2022-11-25T01:52:39.671Z,20.83
2022-11-25T01:55:16.872Z,19.30
2022-11-25T01:57:56.360Z,24.50
2022-11-25T02:00:27.732Z,26.23
2022-11-25T02:03:00.148Z,20.70
2022-11-25T02:05:55.676Z,26.23
2022-11-25T02:08:27.893Z,23.17
2022-11-25T02:11:01.332Z,17.50
2022-11-25T02:13:33.513Z,19.63
2022-11-25T02:16:05.174Z,22.27
2022-11-25T02:18:36.515Z,17.53
2022-11-25T02:21:08.560Z,17.87
2022-11-25T02:23:45.802Z,16.40
2022-11-25T02:26:17.621Z,21.23
2022-11-25T02:28:49.077Z,24.27
2022-11-25T02:31:21.570Z,21.57
2022-11-25T02:33:52.846Z,14.33
2022-11-25T02:36:24.239Z,21.27
2022-11-25T02:39:00.691Z,19.93
2022-11-25T02:41:35.084Z,15.37
2022-11-25T02:44:06.760Z,20.50
2022-11-25T02:46:38.139Z,21.10
2022-11-25T02:49:10.414Z,22.57
2022-11-25T02:51:44.631Z,20.90
2022-11-25T02:54:16.598Z,19.40
2022-11-25T02:56:47.967Z,28.17
2022-11-25T02:59:19.292Z,19.00
2022-11-25T03:01:50.659Z,20.57
2022-11-25T03:04:22.013Z,20.80
2022-11-25T03:06:53.267Z,17.07
2022-11-25T03:09:24.549Z,19.57
2022-11-25T03:12:14.274Z,16.27
2022-11-25T03:14:45.725Z,22.17
2022-11-25T03:17:17.015Z,15.07
2022-11-25T03:19:48.395Z,15.83
2022-11-25T03:22:19.788Z,16.20
2022-11-25T03:24:51.087Z,16.07
2022-11-25T03:27:22.615Z,22.73
2022-11-25T03:29:53.958Z,16.10
2022-11-25T03:32:25.321Z,17.63
2022-11-25T03:34:56.586Z,14.83
2022-11-25T03:37:27.986Z,13.63
2022-11-25T03:39:59.276Z,17.63
2022-11-25T03:42:30.762Z,17.93
2022-11-25T03:45:02.598Z,16.03
2022-11-25T03:47:34.136Z,11.80
2022-11-25T03:50:06.284Z,14.00
2022-11-25T03:52:38.414Z,14.87
2022-11-25T03:55:12.472Z,16.83
2022-11-25T03:57:43.784Z,14.90
2022-11-25T04:00:15.197Z,18.37
2022-11-25T04:02:46.675Z,18.17
2022-11-25T04:05:18.072Z,20.67
2022-11-25T04:07:52.312Z,17.10
2022-11-25T04:10:27.884Z,15.80
2022-11-25T04:12:59.176Z,25.33
2022-11-25T04:15:30.519Z,17.43
2022-11-25T04:18:01.906Z,15.50
2022-11-25T04:20:33.175Z,13.73
2022-11-25T04:23:06.329Z,15.47
2022-11-25T04:25:37.998Z,20.20
2022-11-25T04:28:09.382Z,16.57
2022-11-25T04:30:40.686Z,14.20
2022-11-25T04:33:12.034Z,14.60
2022-11-25T04:35:43.299Z,13.50
2022-11-25T04:38:14.692Z,12.63
2022-11-25T04:40:45.951Z,14.53
2022-11-25T04:43:17.452Z,14.20
2022-11-25T04:48:41.535Z,13.03
2022-11-25T04:51:13.059Z,14.37
2022-11-25T04:53:45.575Z,15.47
2022-11-25T04:56:19.064Z,16.73
2022-11-25T04:59:09.000Z,12.13
2022-11-25T05:01:40.408Z,16.47
2022-11-25T05:04:11.726Z,14.77
2022-11-25T05:06:42.986Z,14.73
2022-11-25T05:09:14.497Z,13.93
2022-11-25T05:11:45.852Z,12.53
2022-11-25T05:14:17.184Z,11.10
2022-11-25T05:16:48.495Z,12.10
2022-11-25T05:19:20.018Z,13.33
2022-11-25T05:21:51.391Z,14.67
2022-11-25T05:24:24.158Z,14.27
2022-11-25T05:26:55.510Z,13.67
2022-11-25T05:29:26.891Z,18.53
2022-11-25T05:31:58.303Z,16.10
2022-11-25T05:34:29.775Z,19.33
2022-11-25T05:37:01.065Z,12.30
2022-11-25T05:39:32.391Z,15.37
2022-11-25T05:42:03.891Z,9.93
2022-11-25T05:44:35.380Z,12.30
2022-11-25T05:47:06.914Z,11.03
2022-11-25T05:49:38.266Z,17.87
2022-11-25T05:52:09.617Z,15.27
2022-11-25T05:54:40.986Z,11.70
2022-11-25T05:57:12.314Z,15.57
2022-11-25T05:59:43.692Z,12.00
2022-11-25T06:02:15.064Z,12.80
2022-11-25T06:04:46.512Z,13.77
2022-11-25T06:07:17.903Z,11.93
2022-11-25T06:09:50.376Z,9.47
2022-11-25T06:12:21.810Z,13.07
2022-11-25T06:14:53.092Z,16.70
2022-11-25T06:17:24.596Z,15.13
2022-11-25T06:19:56.015Z,10.83
2022-11-25T06:22:27.372Z,10.13
2022-11-25T06:25:03.327Z,13.67
2022-11-25T06:27:56.945Z,12.47
2022-11-25T06:30:27.452Z,12.07
2022-11-25T06:32:58.764Z,9.27
2022-11-25T06:35:30.023Z,14.37
2022-11-25T06:38:01.625Z,12.10
2022-11-25T06:40:33.064Z,15.77
2022-11-25T06:43:04.938Z,10.40
2022-11-25T06:45:36.327Z,11.77
2022-11-25T06:48:07.658Z,17.20
2022-11-25T06:50:39.002Z,10.60
2022-11-25T06:53:10.338Z,9.57
2022-11-25T06:55:41.709Z,12.30
2022-11-25T06:58:34.985Z,8.73
2022-11-25T07:01:16.344Z,7.80
2022-11-25T07:03:54.259Z,9.90
2022-11-25T07:06:25.812Z,11.07
2022-11-25T07:08:57.200Z,14.20
2022-11-25T07:11:34.054Z,13.83
2022-11-25T07:14:11.996Z,8.60
2022-11-25T07:16:45.508Z,10.90
2022-11-25T07:19:18.546Z,9.47
2022-11-25T07:21:49.923Z,10.67
2022-11-25T07:24:21.216Z,16.90
2022-11-25T07:26:52.623Z,12.13
2022-11-25T07:32:16.054Z,9.30
2022-11-25T07:34:51.334Z,10.23
2022-11-25T07:37:22.654Z,15.17
2022-11-25T07:39:53.988Z,9.60
2022-11-25T07:42:25.399Z,8.07
2022-11-25T07:44:56.684Z,11.97
2022-11-25T07:47:28.040Z,9.53
2022-11-25T07:49:59.383Z,12.73
2022-11-25T07:52:30.742Z,9.60
2022-11-25T07:55:02.099Z,8.77
2022-11-25T07:57:33.464Z,11.43
2022-11-25T08:00:06.140Z,14.07
2022-11-25T08:02:37.606Z,12.67
2022-11-25T08:05:09.346Z,7.83
2022-11-25T08:07:40.727Z,10.53
2022-11-25T08:10:12.167Z,10.40
2022-11-25T08:12:43.457Z,9.50
2022-11-25T08:15:15.107Z,9.03
2022-11-25T08:17:46.589Z,7.90
2022-11-25T08:20:18.168Z,12.27
2022-11-25T08:22:50.482Z,7.20
2022-11-25T08:25:21.873Z,9.27
2022-11-25T08:27:53.245Z,18.50
2022-11-25T08:30:25.913Z,13.13
2022-11-25T08:32:58.468Z,12.20
2022-11-25T08:35:29.754Z,18.70
2022-11-25T08:38:01.025Z,13.03
2022-11-25T08:40:34.537Z,8.27
2022-11-25T08:43:05.812Z,9.47
2022-11-25T08:45:39.558Z,7.73
2022-11-25T08:48:10.884Z,13.73
2022-11-25T08:50:52.731Z,7.90
2022-11-25T08:53:24.200Z,5.83
2022-11-25T08:55:55.551Z,8.47
2022-11-25T08:58:26.909Z,9.57
2022-11-25T09:00:58.414Z,10.73
2022-11-25T09:03:33.219Z,11.77
2022-11-25T09:06:05.069Z,9.73
2022-11-25T09:08:37.592Z,9.20
2022-11-25T09:11:09.930Z,8.57
2022-11-25T09:13:41.542Z,8.07
2022-11-25T09:16:12.956Z,13.63
2022-11-25T09:18:45.579Z,9.57
2022-11-25T09:21:18.108Z,11.93
2022-11-25T09:23:51.221Z,11.43
2022-11-25T09:26:25.472Z,7.17
2022-11-25T09:28:57.427Z,8.23
2022-11-25T09:31:28.858Z,8.07
2022-11-25T09:34:00.385Z,8.53
2022-11-25T09:36:31.662Z,12.77
2022-11-25T09:39:03.658Z,15.07
2022-11-25T09:42:16.546Z,13.40
2022-11-25T09:45:17.536Z,10.53
2022-11-25T09:48:12.947Z,16.10
2022-11-25T09:50:58.076Z,15.53
2022-11-25T09:53:51.048Z,13.23
2022-11-25T09:56:42.636Z,9.03
2022-11-25T09:59:28.708Z,11.63
2022-11-25T10:02:14.805Z,9.63
2022-11-25T10:04:55.164Z,13.82
2022-11-25T10:07:35.088Z,13.03
2022-11-25T10:10:15.476Z,9.77
2022-11-25T10:12:48.942Z,11.90
2022-11-25T10:15:43.367Z,9.20
2022-11-25T10:18:25.144Z,10.17
2022-11-25T10:20:56.501Z,11.40
2022-11-25T10:23:33.824Z,7.17
2022-11-25T10:26:30.788Z,11.73
2022-11-25T10:29:14.170Z,11.73
2022-11-25T10:31:45.619Z,8.70
2022-11-25T10:34:29.821Z,11.10
2022-11-25T10:37:04.795Z,9.77
2022-11-25T10:39:36.123Z,14.93
2022-11-25T10:42:17.122Z,13.47
2022-11-25T10:44:48.578Z,9.50
2022-11-25T10:47:37.061Z,13.83
2022-11-25T10:50:16.332Z,10.43
2022-11-25T10:52:58.628Z,9.07
2022-11-25T10:55:32.716Z,12.83
2022-11-25T10:58:39.092Z,7.33
2022-11-25T11:01:15.613Z,12.30
2022-11-25T11:03:54.510Z,11.87
2022-11-25T11:06:31.389Z,11.60
2022-11-25T11:09:03.199Z,10.10
2022-11-25T11:11:47.810Z,12.03
2022-11-25T11:14:21.047Z,11.73
2022-11-25T11:16:55.025Z,14.20
2022-11-25T11:19:29.437Z,16.20
2022-11-25T11:22:16.564Z,12.33
2022-11-25T11:24:47.904Z,11.67
2022-11-25T11:27:23.543Z,13.60
2022-11-25T11:30:13.894Z,10.27
2022-11-25T11:32:54.925Z,12.17
2022-11-25T11:35:50.102Z,12.17
2022-11-25T11:38:44.432Z,9.73
2022-11-25T11:41:31.245Z,10.63
2022-11-25T11:44:34.187Z,19.03
2022-11-25T11:47:27.978Z,12.50
2022-11-25T11:50:33.079Z,16.57
2022-11-25T11:53:26.079Z,10.57
2022-11-25T11:56:34.102Z,11.97
2022-11-25T11:59:21.155Z,9.97
2022-11-25T12:01:58.154Z,10.60
2022-11-25T12:04:47.121Z,13.73
2022-11-25T12:07:22.679Z,12.57
2022-11-25T12:10:02.018Z,13.38
2022-11-25T12:12:45.154Z,10.30
2022-11-25T12:15:22.806Z,10.00
2022-11-25T12:18:09.786Z,13.20
2022-11-25T12:20:51.987Z,12.80
2022-11-25T12:23:48.842Z,12.70
2022-11-25T12:26:30.886Z,14.38
2022-11-25T12:29:08.968Z,15.23
2022-11-25T12:31:50.380Z,15.00
2022-11-25T12:34:56.625Z,12.17
2022-11-25T12:37:37.659Z,11.23
2022-11-25T12:40:27.031Z,19.60
2022-11-25T12:43:10.981Z,16.43
2022-11-25T12:45:45.199Z,10.27
2022-11-25T12:48:21.294Z,11.53
2022-11-25T12:51:08.476Z,10.10
2022-11-25T12:56:27.636Z,8.30
2022-11-25T12:59:22.760Z,10.87
2022-11-25T13:02:28.223Z,11.80
2022-11-25T13:05:39.660Z,13.33
2022-11-25T13:08:47.704Z,13.53
2022-11-25T13:11:56.963Z,17.13
2022-11-25T13:14:41.871Z,17.23
2022-11-25T13:17:16.259Z,9.50
2022-11-25T13:19:47.974Z,12.07
2022-11-25T13:22:23.403Z,13.90
2022-11-25T13:24:59.499Z,10.23
2022-11-25T13:27:32.307Z,14.02
2022-11-25T13:30:04.462Z,11.20
2022-11-25T13:32:38.133Z,15.23
2022-11-25T13:35:21.653Z,14.40
2022-11-25T13:37:53.037Z,10.03
2022-11-25T13:40:28.476Z,10.40
2022-11-25T13:43:02.876Z,14.40
2022-11-25T13:45:44.575Z,12.63
2022-11-25T13:48:37.023Z,11.10
2022-11-25T13:51:17.152Z,11.73
2022-11-25T13:53:57.695Z,12.00
2022-11-25T13:56:30.383Z,10.67
2022-11-25T13:59:10.573Z,15.23
2022-11-25T14:01:45.023Z,17.73
2022-11-25T14:04:17.731Z,12.40
2022-11-25T14:07:30.378Z,12.50
2022-11-25T14:10:19.578Z,10.77
2022-11-25T14:13:02.302Z,15.80
2022-11-25T14:15:47.385Z,12.23
2022-11-25T14:19:22.178Z,13.03
2022-11-25T14:21:59.811Z,10.00
2022-11-25T14:24:47.716Z,12.13
2022-11-25T14:27:27.731Z,11.30
2022-11-25T14:30:03.846Z,12.80
2022-11-25T14:32:42.995Z,12.82
2022-11-25T14:35:19.561Z,19.57
2022-11-25T14:38:01.338Z,21.60
2022-11-25T14:40:44.651Z,17.67
2022-11-25T14:43:22.027Z,14.10
2022-11-25T14:46:17.817Z,19.17
2022-11-25T14:49:00.730Z,18.17
2022-11-25T14:51:37.792Z,15.53
2022-11-25T14:54:10.223Z,19.50
2022-11-25T14:56:41.953Z,16.07
2022-11-25T14:59:14.669Z,20.47
2022-11-25T15:01:54.847Z,17.03
2022-11-25T15:04:26.367Z,17.70
2022-11-25T15:07:02.163Z,21.57
2022-11-25T15:09:42.687Z,19.83
2022-11-25T15:12:19.632Z,18.47
2022-11-25T15:14:54.806Z,16.60
2022-11-25T15:17:30.483Z,19.13
2022-11-25T15:20:17.529Z,18.23
2022-11-25T15:22:51.727Z,23.20
2022-11-25T15:25:23.134Z,19.20
2022-11-25T15:27:54.563Z,16.20
2022-11-25T15:30:29.228Z,22.13
2022-11-25T15:33:01.191Z,26.40
2022-11-25T15:35:32.811Z,23.17
2022-11-25T15:38:38.803Z,20.53
2022-11-25T15:42:05.054Z,18.40
2022-11-25T15:44:44.745Z,18.80
2022-11-25T15:47:28.681Z,22.50
2022-11-25T15:50:19.407Z,20.27
2022-11-25T15:52:55.451Z,23.60
2022-11-25T15:55:39.826Z,17.77
2022-11-25T15:58:22.482Z,20.23
2022-11-25T16:01:00.992Z,22.60
2022-11-25T16:03:35.158Z,31.90
2022-11-25T16:06:19.775Z,26.80
2022-11-25T16:09:03.723Z,24.37
2022-11-25T16:11:44.840Z,28.03
2022-11-25T16:14:28.664Z,25.23
2022-11-25T16:17:11.865Z,30.07
2022-11-25T16:19:46.844Z,39.17
2022-11-25T16:22:20.301Z,33.93
2022-11-25T16:26:26.767Z,20.83
2022-11-25T16:27:45.468Z,28.37
2022-11-25T16:30:18.762Z,26.93
2022-11-25T16:32:50.093Z,26.60
2022-11-25T16:35:22.116Z,32.07
2022-11-25T16:37:57.947Z,25.10
2022-11-25T16:40:29.595Z,29.73
2022-11-25T16:43:01.106Z,27.40
2022-11-25T16:45:32.658Z,26.67
2022-11-25T16:48:17.209Z,62.43
2022-11-25T16:50:49.652Z,53.90
2022-11-25T16:53:21.004Z,35.13
2022-11-25T16:55:52.399Z,44.07
2022-11-25T16:58:24.692Z,26.87
2022-11-25T17:00:56.572Z,32.93
2022-11-25T17:03:28.714Z,25.07
2022-11-25T17:06:00.244Z,28.57
2022-11-25T17:08:31.657Z,36.90
2022-11-25T17:11:03.163Z,33.20
2022-11-25T17:13:39.268Z,30.17
2022-11-25T17:16:16.951Z,24.73
2022-11-25T17:18:49.705Z,21.80
2022-11-25T17:21:26.765Z,28.30
2022-11-25T17:24:10.829Z,28.80
2022-11-25T17:26:44.120Z,31.17
2022-11-25T17:29:19.498Z,26.40
2022-11-25T17:31:55.113Z,23.90
2022-11-25T17:34:30.400Z,26.73
2022-11-25T17:37:12.813Z,26.20
2022-11-25T17:39:45.277Z,30.47
2022-11-25T17:42:18.691Z,26.00
2022-11-25T17:44:54.104Z,25.33
2022-11-25T17:47:25.733Z,24.75
2022-11-25T17:49:57.805Z,26.73
2022-11-25T17:52:29.180Z,24.50
2022-11-25T17:55:00.529Z,25.60
2022-11-25T17:57:31.915Z,35.30
2022-11-25T18:00:04.971Z,25.03
2022-11-25T18:02:36.600Z,29.13
2022-11-25T18:05:26.802Z,26.13
2022-11-25T18:07:58.296Z,35.33
2022-11-25T18:10:29.786Z,31.83
2022-11-25T18:13:02.588Z,30.70
2022-11-25T18:15:34.714Z,39.00
2022-11-25T18:18:18.981Z,33.47
2022-11-25T18:20:51.263Z,33.70
2022-11-25T18:23:23.256Z,34.50
2022-11-25T18:25:57.173Z,33.67
2022-11-25T18:28:30.498Z,33.80
2022-11-25T18:31:06.194Z,32.37
2022-11-25T18:33:37.616Z,33.08
2022-11-25T18:36:12.716Z,30.33
2022-11-25T18:38:45.456Z,29.53
2022-11-25T18:41:21.455Z,33.00
2022-11-25T18:43:52.791Z,30.95
2022-11-25T18:46:24.109Z,27.37
2022-11-25T18:48:56.296Z,33.80
2022-11-25T18:51:27.762Z,32.47
2022-11-25T18:53:59.106Z,28.40
2022-11-25T18:56:30.624Z,36.67
2022-11-25T18:59:03.364Z,32.10
2022-11-25T19:01:34.754Z,36.87
2022-11-25T19:04:06.089Z,29.43
2022-11-25T19:06:37.737Z,35.33
2022-11-25T19:09:09.286Z,30.23
2022-11-25T19:11:46.990Z,31.23
2022-11-25T19:14:29.978Z,40.43
2022-11-25T19:17:09.607Z,27.93
2022-11-25T19:19:42.667Z,31.20
2022-11-25T19:22:15.586Z,38.53
2022-11-25T19:24:46.971Z,39.03
2022-11-25T19:27:23.236Z,33.83
2022-11-25T19:32:28.469Z,35.60
2022-11-25T19:35:06.740Z,31.97
2022-11-25T19:37:38.801Z,31.83
2022-11-25T19:40:15.651Z,34.80
2022-11-25T19:42:48.242Z,35.83
2022-11-25T19:45:20.646Z,32.80
2022-11-25T19:47:52.259Z,35.53
2022-11-25T19:50:28.572Z,35.10
2022-11-25T19:53:01.296Z,30.03
2022-11-25T19:55:32.975Z,39.50
2022-11-25T19:58:04.300Z,37.13
2022-11-25T20:00:35.765Z,32.87
2022-11-25T20:03:17.763Z,35.60
2022-11-25T20:05:51.184Z,28.90
2022-11-25T20:08:26.551Z,32.60
2022-11-25T20:11:00.097Z,30.50
2022-11-25T20:13:31.449Z,37.43
2022-11-25T20:16:03.358Z,32.97
2022-11-25T20:18:35.428Z,42.63
2022-11-25T20:21:07.046Z,37.47
2022-11-25T20:23:44.244Z,29.43
2022-11-25T20:26:31.432Z,26.30
2022-11-25T20:29:16.019Z,28.37
2022-11-25T20:31:48.128Z,29.50
2022-11-25T20:34:19.455Z,32.13
2022-11-25T20:36:50.817Z,36.53
2022-11-25T20:39:22.217Z,23.63
2022-11-25T20:41:53.677Z,30.53
2022-11-25T20:44:25.128Z,32.10
2022-11-25T20:46:56.377Z,28.47
2022-11-25T20:49:29.063Z,25.07
2022-11-25T20:52:01.048Z,30.77
2022-11-25T20:54:35.706Z,31.53
2022-11-25T20:57:09.655Z,29.57
2022-11-25T20:59:41.006Z,29.17
2022-11-25T21:02:12.581Z,37.17
2022-11-25T21:04:43.964Z,29.90
2022-11-25T21:07:17.670Z,26.07
2022-11-25T21:09:49.135Z,30.00
2022-11-25T21:12:20.506Z,28.87
2022-11-25T21:14:51.762Z,37.33
2022-11-25T21:17:23.042Z,25.20
2022-11-25T21:19:54.729Z,35.27
2022-11-25T21:22:26.072Z,31.13
2022-11-25T21:24:57.563Z,35.43
2022-11-25T21:27:29.072Z,32.03
2022-11-25T21:30:00.404Z,29.90
2022-11-25T21:32:31.830Z,23.60
2022-11-25T21:35:04.211Z,23.83
2022-11-25T21:37:36.367Z,33.30
2022-11-25T21:40:23.095Z,23.33
2022-11-25T21:45:25.936Z,21.60
2022-11-25T21:47:57.550Z,26.13
2022-11-25T21:50:29.842Z,24.87
2022-11-25T21:53:02.041Z,19.67
2022-11-25T21:55:33.619Z,21.57
2022-11-25T21:58:08.296Z,29.70
2022-11-25T22:00:39.678Z,27.20
2022-11-25T22:03:19.339Z,27.73
2022-11-25T22:05:50.862Z,32.03
2022-11-25T22:08:23.230Z,17.73
2022-11-25T22:10:55.239Z,17.60
2022-11-25T22:13:37.802Z,18.97
2022-11-25T22:16:15.809Z,29.90
2022-11-25T22:18:47.337Z,26.00
2022-11-25T22:21:18.600Z,31.13
2022-11-25T22:23:50.099Z,25.17
2022-11-25T22:26:28.184Z,21.23
2022-11-25T22:29:00.871Z,26.20
2022-11-25T22:31:32.250Z,22.77
2022-11-25T22:34:03.674Z,24.97
2022-11-25T22:36:37.435Z,22.60
2022-11-25T22:39:17.679Z,28.73
2022-11-25T22:41:55.004Z,20.00
2022-11-25T22:44:45.193Z,25.23
2022-11-25T22:47:25.429Z,24.10
2022-11-25T22:49:57.154Z,30.10
2022-11-25T22:52:33.758Z,31.97
2022-11-25T22:55:14.090Z,33.50
2022-11-25T22:57:46.699Z,28.23
2022-11-25T23:00:20.530Z,24.93
2022-11-25T23:02:55.081Z,47.03
2022-11-25T23:05:33.311Z,89.37
2022-11-25T23:08:19.906Z,81.70
2022-11-25T23:10:52.092Z,64.78
2022-11-25T23:13:24.400Z,41.70
2022-11-25T23:15:58.305Z,52.93
2022-11-25T23:18:38.598Z,40.70
2022-11-25T23:21:23.871Z,30.57
2022-11-25T23:23:56.225Z,41.07
2022-11-25T23:26:33.613Z,35.07
2022-11-25T23:29:06.712Z,49.27
2022-11-25T23:31:39.454Z,33.50
2022-11-25T23:34:12.613Z,40.20
2022-11-25T23:36:46.684Z,33.03
2022-11-25T23:39:23.584Z,43.43
2022-11-25T23:41:54.958Z,41.00
2022-11-25T23:44:33.912Z,40.53
2022-11-25T23:47:06.403Z,35.33
2022-11-25T23:49:41.180Z,37.50
2022-11-25T23:52:25.154Z,47.50
2022-11-25T23:54:56.513Z,56.27
2022-11-25T23:57:32.221Z,43.60
